Sterling, Ohio
Current Conditions -  °F | °C
As of 6:54 PM on Tuesday 25 Nov 2014 (Local Time) from KAKR Reporting Station
Overcast Overcast  
Wind Chill: 30°   Ceiling: 2200
Heat Index: 36°   Visibility: 10mi
Dew Point: 27°   Wind: 7mph
Humidity: 70%   Direction: 270°W
Pressure: 30.14"   Gusts: NA
Location:  40.97°N, 81.85°W
Report Text: KAKR 252354Z AUTO 27006KT 10SM BKN022 OVC035 02/M03 A3014 RMK AO2 SLP215 T00221028 10039 20022 53019
Loading
Personal Weather Stations






























Interactive Weather Map New forecast layout! Learn more

10-Day Weather Forecast

Advertisements
Track Severe Weather on mobile